createdAt,value
2018-07-05T00:02:39.837Z,73
2018-07-05T00:08:09.441Z,73
2018-07-05T00:13:33.083Z,73
2018-07-05T00:19:01.717Z,73
2018-07-05T00:24:30.618Z,73
2018-07-05T00:29:59.282Z,74
2018-07-05T00:35:28.878Z,74
2018-07-05T00:40:57.512Z,74
2018-07-05T00:46:26.239Z,74
2018-07-05T00:51:56.203Z,74
2018-07-05T00:51:57.040Z,74
2018-07-05T00:57:25.326Z,74
2018-07-05T01:02:54.636Z,74
2018-07-05T01:08:23.692Z,74
2018-07-05T01:13:53.467Z,74
2018-07-05T01:19:23.382Z,74
2018-07-05T01:24:57.783Z,74
2018-07-05T01:30:22.740Z,74
2018-07-05T01:35:57.179Z,74
2018-07-05T01:41:20.842Z,74
2018-07-05T01:46:55.067Z,74
2018-07-05T01:52:18.540Z,74
2018-07-05T01:57:47.142Z,74
2018-07-05T02:03:21.857Z,74
2018-07-05T02:08:46.343Z,74
2018-07-05T02:14:15.213Z,74
2018-07-05T02:19:44.202Z,74
2018-07-05T02:25:18.421Z,74
2018-07-05T02:30:46.954Z,74
2018-07-05T02:36:10.976Z,74
2018-07-05T02:41:44.273Z,74
2018-07-05T02:47:08.956Z,74
2018-07-05T02:52:37.858Z,75
2018-07-05T02:58:06.515Z,75
2018-07-05T03:03:34.944Z,75
2018-07-05T03:09:04.889Z,75
2018-07-05T03:14:33.180Z,75
2018-07-05T03:20:07.290Z,75
2018-07-05T03:25:30.848Z,75
2018-07-05T03:31:00.487Z,75
2018-07-05T03:36:29.157Z,75
2018-07-05T03:42:02.482Z,75
2018-07-05T03:47:26.330Z,75
2018-07-05T03:52:54.789Z,75
2018-07-05T04:03:53.315Z,75
2018-07-05T04:09:22.596Z,75
2018-07-05T04:14:51.564Z,75
2018-07-05T04:20:20.227Z,76
2018-07-05T04:25:54.789Z,76
2018-07-05T04:31:19.157Z,76
2018-07-05T04:36:49.266Z,76
2018-07-05T04:42:18.689Z,76
2018-07-05T04:47:46.988Z,76
2018-07-05T04:53:17.048Z,76
2018-07-05T04:58:51.494Z,76
2018-07-05T05:04:15.190Z,76
2018-07-05T05:09:44.922Z,76
2018-07-05T05:15:13.602Z,76
2018-07-05T05:20:43.018Z,76
2018-07-05T05:26:11.865Z,76
2018-07-05T05:31:40.569Z,76
2018-07-05T05:31:41.147Z,76
2018-07-05T05:37:14.271Z,76
2018-07-05T05:42:43.587Z,76
2018-07-05T05:48:12.388Z,75
2018-07-05T05:53:36.286Z,76
2018-07-05T05:59:10.818Z,76
2018-07-05T06:04:35.365Z,77
2018-07-05T06:10:04.048Z,77
2018-07-05T06:15:38.660Z,77
2018-07-05T06:21:03.567Z,77
2018-07-05T06:26:37.147Z,76
2018-07-05T06:32:06.623Z,76
2018-07-05T06:37:30.402Z,76
2018-07-05T06:42:59.316Z,76
2018-07-05T06:48:27.963Z,77
2018-07-05T06:54:01.494Z,77
2018-07-05T06:59:31.378Z,77
2018-07-05T07:05:01.441Z,77
2018-07-05T07:10:24.482Z,77
2018-07-05T07:15:54.195Z,77
2018-07-05T07:21:24.119Z,77
2018-07-05T07:26:52.527Z,78
2018-07-05T07:32:21.440Z,78
2018-07-05T07:43:20.032Z,77
2018-07-05T07:48:48.276Z,77
2018-07-05T07:54:22.478Z,78
2018-07-05T07:59:50.789Z,78
2018-07-05T08:05:15.288Z,77
2018-07-05T08:10:45.113Z,77
2018-07-05T08:16:15.171Z,77
2018-07-05T08:21:44.512Z,77
2018-07-05T08:27:13.623Z,77
2018-07-05T08:32:47.357Z,77
2018-07-05T08:38:11.944Z,77
2018-07-05T08:43:40.469Z,76
2018-07-05T08:49:10.188Z,76
2018-07-05T08:54:38.848Z,76
2018-07-05T09:00:08.278Z,76
2018-07-05T09:05:42.693Z,76
2018-07-05T09:11:06.051Z,76
2018-07-05T09:16:34.982Z,76
2018-07-05T09:22:04.467Z,75
2018-07-05T09:27:34.491Z,75
2018-07-05T09:33:03.199Z,75
2018-07-05T09:38:36.935Z,75
2018-07-05T09:44:01.706Z,75
2018-07-05T09:49:30.471Z,74
2018-07-05T09:54:59.368Z,74
2018-07-05T10:00:27.723Z,74
2018-07-05T10:06:02.535Z,74
2018-07-05T10:11:32.309Z,74
2018-07-05T10:17:02.111Z,74
2018-07-05T10:22:25.973Z,73
2018-07-05T10:28:00.757Z,73
2018-07-05T10:33:24.558Z,73
2018-07-05T10:38:54.709Z,73
2018-07-05T10:44:24.318Z,72
2018-07-05T10:49:53.352Z,73
2018-07-05T10:55:22.049Z,73
2018-07-05T11:00:52.029Z,73
2018-07-05T11:06:20.895Z,73
2018-07-05T11:22:49.665Z,72
2018-07-05T11:28:19.261Z,73
2018-07-05T11:33:48.781Z,72
2018-07-05T11:44:53.091Z,72
2018-07-05T11:50:22.353Z,72
2018-07-05T11:55:47.176Z,71
2018-07-05T12:01:16.303Z,71
2018-07-05T12:06:45.241Z,71
2018-07-05T12:12:14.792Z,71
2018-07-05T12:17:45.030Z,70
2018-07-05T12:23:13.657Z,70
2018-07-05T12:28:43.877Z,71
2018-07-05T12:56:08.939Z,70
2018-07-05T13:01:42.763Z,70
2018-07-05T13:07:07.903Z,70
2018-07-05T13:12:41.499Z,70
2018-07-05T13:18:05.353Z,70
2018-07-05T13:23:35.413Z,70
2018-07-05T13:29:05.518Z,71
2018-07-05T13:34:34.840Z,70
2018-07-05T13:40:08.678Z,71
2018-07-05T13:45:32.869Z,71
2018-07-05T13:51:01.284Z,70
2018-07-05T13:56:35.651Z,70
2018-07-05T14:01:59.174Z,70
2018-07-05T14:07:28.882Z,70
2018-07-05T14:12:57.419Z,70
2018-07-05T14:18:26.609Z,70
2018-07-05T14:23:56.326Z,70
2018-07-05T14:29:25.114Z,70
2018-07-05T14:34:55.814Z,70
2018-07-05T14:40:29.804Z,69
2018-07-05T14:45:53.665Z,69
2018-07-05T14:51:23.539Z,69
2018-07-05T14:56:52.448Z,69
2018-07-05T15:02:26.286Z,69
2018-07-05T15:07:51.512Z,70
2018-07-05T15:13:24.696Z,70
2018-07-05T15:18:53.776Z,69
2018-07-05T15:24:17.670Z,69
2018-07-05T15:29:47.451Z,70
2018-07-05T15:35:15.913Z,70
2018-07-05T15:40:45.276Z,70
2018-07-05T15:46:19.798Z,70
2018-07-05T15:51:43.608Z,70
2018-07-05T15:57:12.194Z,70
2018-07-05T16:02:41.112Z,70
2018-07-05T16:08:09.633Z,70
2018-07-05T16:13:38.721Z,70
2018-07-05T16:19:07.469Z,70
2018-07-05T16:24:36.032Z,70
2018-07-05T16:30:05.011Z,70
2018-07-05T16:35:33.773Z,71
2018-07-05T16:41:02.523Z,71
2018-07-05T16:46:32.111Z,71
2018-07-05T16:46:36.315Z,71
2018-07-05T16:52:01.035Z,71
2018-07-05T16:57:35.877Z,71
2018-07-05T17:03:04.576Z,71
2018-07-05T17:08:28.325Z,71
2018-07-05T17:14:03.237Z,71
2018-07-05T17:19:32.964Z,71
2018-07-05T17:24:56.337Z,71
2018-07-05T17:30:26.394Z,71
2018-07-05T17:35:54.861Z,71
2018-07-05T17:41:24.633Z,71
2018-07-05T17:46:53.396Z,71
2018-07-05T17:52:23.300Z,71
2018-07-05T17:57:52.926Z,71
2018-07-05T18:03:21.882Z,71
2018-07-05T18:08:50.776Z,72
2018-07-05T18:14:19.250Z,72
2018-07-05T18:19:53.080Z,72
2018-07-05T18:25:21.515Z,72
2018-07-05T18:30:46.232Z,73
2018-07-05T18:36:14.894Z,73
2018-07-05T18:41:43.538Z,73
2018-07-05T18:47:17.360Z,73
2018-07-05T18:52:40.920Z,73
2018-07-05T18:58:09.601Z,73
2018-07-05T19:03:43.314Z,73
2018-07-05T19:09:06.896Z,73
2018-07-05T19:14:35.863Z,73
2018-07-05T19:20:09.667Z,73
2018-07-05T19:25:38.925Z,73
2018-07-05T19:31:03.898Z,73
2018-07-05T19:36:32.268Z,73
2018-07-05T19:42:01.157Z,73
2018-07-05T19:47:35.543Z,74
2018-07-05T19:53:00.554Z,74
2018-07-05T19:58:28.917Z,74
2018-07-05T20:03:58.483Z,74
2018-07-05T20:09:29.080Z,74
2018-07-05T20:14:58.082Z,74
2018-07-05T20:20:27.451Z,74
2018-07-05T20:25:57.093Z,74
2018-07-05T20:31:26.975Z,74
2018-07-05T20:36:56.374Z,74
2018-07-05T20:42:26.031Z,74
2018-07-05T20:47:54.667Z,75
2018-07-05T20:53:23.541Z,75
2018-07-05T20:58:52.864Z,75
2018-07-05T21:04:21.684Z,75
2018-07-05T21:09:50.279Z,75
2018-07-05T21:15:19.644Z,75
2018-07-05T21:20:49.331Z,75
2018-07-05T21:26:18.449Z,75
2018-07-05T21:31:51.790Z,75
2018-07-05T21:37:15.346Z,75
2018-07-05T21:42:49.948Z,75
2018-07-05T21:48:14.597Z,75
2018-07-05T21:53:42.874Z,75
2018-07-05T21:59:16.563Z,74
2018-07-05T22:04:40.223Z,74
2018-07-05T22:10:09.683Z,74
2018-07-05T22:15:39.634Z,74
2018-07-05T22:21:09.234Z,74
2018-07-05T22:26:43.461Z,74
2018-07-05T22:32:08.101Z,74
2018-07-05T22:37:36.894Z,74
2018-07-05T22:43:05.539Z,74
2018-07-05T22:48:40.238Z,75
2018-07-05T22:54:04.449Z,75
2018-07-05T22:59:34.270Z,75
2018-07-05T23:05:08.601Z,75
2018-07-05T23:10:32.383Z,75
2018-07-05T23:16:01.698Z,75
2018-07-05T23:21:30.508Z,75
2018-07-05T23:26:58.891Z,74
2018-07-05T23:32:28.431Z,74
2018-07-05T23:38:03.013Z,75
2018-07-05T23:43:31.900Z,75
2018-07-05T23:49:01.192Z,75
2018-07-05T23:54:26.031Z,75
2018-07-05T23:59:55.786Z,75
